Time;durP1;ratioP1;P1;durP2;ratioP2;P2;SDS_P1;SDS_P2;PMS_P1;PMS_P2;Temp;Humidity;BMP_temperature;BMP_pressure;BME280_temperature;BME280_humidity;BME280_pressure;Samples;Min_cycle;Max_cycle;Signal;HPM_P1;HPM_P2
2021/07/06 00:00:10;;;;;;;2.80;2.60;;;14.60;99.90;;;;;;5006148;28;20458;-59
2021/07/06 00:02:35;;;;;;;4.20;2.60;;;14.60;99.90;;;;;;5010181;28;20208;-59
2021/07/06 00:05:01;;;;;;;4.97;2.70;;;14.60;99.90;;;;;;5008093;28;20442;-60
2021/07/06 00:07:27;;;;;;;12.50;2.90;;;14.60;99.90;;;;;;5010793;28;20187;-59
2021/07/06 00:09:53;;;;;;;3.30;3.00;;;14.50;99.90;;;;;;5006103;28;20184;-59
2021/07/06 00:12:19;;;;;;;3.90;2.33;;;14.50;99.90;;;;;;5009972;28;20842;-58
2021/07/06 00:14:45;;;;;;;2.57;2.20;;;14.50;99.90;;;;;;5008321;28;20429;-59
2021/07/06 00:17:11;;;;;;;3.90;2.40;;;14.50;99.90;;;;;;5011503;28;20164;-59
2021/07/06 00:19:37;;;;;;;8.50;2.90;;;14.40;99.90;;;;;;5010478;28;20528;-59
2021/07/06 00:22:04;;;;;;;4.63;2.90;;;14.40;99.90;;;;;;5009207;28;20251;-58
2021/07/06 00:24:29;;;;;;;3.10;2.73;;;14.40;99.90;;;;;;5008142;28;20514;-58
2021/07/06 00:26:55;;;;;;;6.00;2.53;;;14.40;99.90;;;;;;5007883;28;20594;-59
2021/07/06 00:29:21;;;;;;;7.80;3.33;;;14.40;99.90;;;;;;5009041;28;20176;-60
2021/07/06 00:31:47;;;;;;;4.87;3.00;;;14.30;99.90;;;;;;4991008;28;20307;-59
2021/07/06 00:34:12;;;;;;;4.77;2.50;;;14.30;99.90;;;;;;5005830;28;20985;-59
2021/07/06 00:36:38;;;;;;;6.03;2.50;;;14.30;99.90;;;;;;5009674;28;20204;-60
2021/07/06 00:39:05;;;;;;;4.60;2.83;;;14.20;99.90;;;;;;5003782;28;20585;-59
2021/07/06 00:41:33;;;;;;;3.30;2.40;;;14.20;99.90;;;;;;5008742;28;20280;-58
2021/07/06 00:43:59;;;;;;;4.47;2.77;;;14.10;99.90;;;;;;5005850;28;20417;-59
2021/07/06 00:46:25;;;;;;;3.40;2.97;;;14.10;99.90;;;;;;5008657;28;20498;-59
2021/07/06 00:48:50;;;;;;;5.13;3.23;;;14.10;99.90;;;;;;5000815;28;20255;-58
2021/07/06 00:51:16;;;;;;;9.10;3.10;;;14.00;99.90;;;;;;5010693;28;20749;-59
2021/07/06 00:53:41;;;;;;;5.47;3.27;;;14.00;99.90;;;;;;5009418;28;20176;-60
2021/07/06 00:56:07;;;;;;;3.20;2.90;;;14.00;99.90;;;;;;5010231;28;20180;-59
2021/07/06 00:58:33;;;;;;;6.33;3.70;;;14.00;99.90;;;;;;5008098;28;20219;-58
2021/07/06 01:00:59;;;;;;;7.00;3.50;;;14.00;99.90;;;;;;5001655;28;20168;-59
2021/07/06 01:03:24;;;;;;;6.63;3.90;;;13.90;99.90;;;;;;5008097;28;20443;-59
2021/07/06 01:05:50;;;;;;;10.83;3.70;;;13.90;99.90;;;;;;5009053;28;20164;-61
2021/07/06 01:08:16;;;;;;;7.07;4.30;;;13.90;99.90;;;;;;4995024;28;20200;-60
2021/07/06 01:10:42;;;;;;;19.83;4.60;;;13.90;99.90;;;;;;5001407;28;20440;-58
2021/07/06 01:13:08;;;;;;;11.27;4.17;;;13.90;99.90;;;;;;5000846;28;20188;-60
2021/07/06 01:15:35;;;;;;;10.83;3.90;;;13.90;99.90;;;;;;5002714;28;20185;-60
2021/07/06 01:18:11;;;;;;;19.00;4.33;;;13.80;99.90;;;;;;5005671;28;20404;-59
2021/07/06 01:20:43;;;;;;;13.40;3.90;;;13.80;99.90;;;;;;5009305;28;20451;-59
2021/07/06 01:23:09;;;;;;;4.67;3.97;;;13.80;99.90;;;;;;5007853;28;20478;-58
2021/07/06 01:25:39;;;;;;;5.30;3.73;;;13.70;99.90;;;;;;5007945;28;20482;-60
2021/07/06 01:28:06;;;;;;;8.03;3.83;;;13.70;99.90;;;;;;5008958;28;20896;-59
2021/07/06 01:30:32;;;;;;;4.63;3.80;;;13.70;99.90;;;;;;5009161;28;20451;-59
2021/07/06 01:32:59;;;;;;;9.23;3.33;;;13.70;99.90;;;;;;5005268;28;20530;-59
2021/07/06 01:35:25;;;;;;;29.60;4.77;;;13.70;99.90;;;;;;5004462;28;20943;-59
2021/07/06 01:37:55;;;;;;;4.83;3.13;;;13.70;99.90;;;;;;5009760;28;20415;-57
2021/07/06 01:40:22;;;;;;;5.83;3.47;;;13.80;99.90;;;;;;5005925;28;20546;-59
2021/07/06 01:42:49;;;;;;;8.60;4.07;;;13.80;99.90;;;;;;5005642;28;20839;-59
2021/07/06 01:45:18;;;;;;;16.53;4.70;;;13.70;99.90;;;;;;5008067;28;20908;-59
2021/07/06 01:47:54;;;;;;;7.20;4.47;;;13.70;99.90;;;;;;5003750;28;20501;-58
2021/07/06 01:50:27;;;;;;;13.27;4.23;;;13.70;99.90;;;;;;5004394;28;20430;-58
2021/07/06 01:52:56;;;;;;;16.90;4.87;;;13.70;99.90;;;;;;5005948;28;20490;-59
2021/07/06 01:55:25;;;;;;;4.27;3.70;;;13.70;99.90;;;;;;5009053;28;20415;-59
2021/07/06 01:57:52;;;;;;;7.53;4.30;;;13.70;99.90;;;;;;4994792;28;20438;-59
2021/07/06 02:00:20;;;;;;;12.17;3.43;;;13.70;99.90;;;;;;5005421;28;20521;-58
2021/07/06 02:02:47;;;;;;;9.30;3.73;;;13.70;99.90;;;;;;5012227;28;20443;-59
2021/07/06 02:05:18;;;;;;;11.53;3.20;;;13.70;99.90;;;;;;4993989;28;20411;-59
2021/07/06 02:07:48;;;;;;;26.03;3.30;;;13.60;99.90;;;;;;4993950;28;21163;-58
2021/07/06 02:10:16;;;;;;;5.20;3.40;;;13.60;99.90;;;;;;5005479;28;20431;-59
2021/07/06 02:12:41;;;;;;;4.10;3.17;;;13.60;99.90;;;;;;5009083;28;20782;-58
2021/07/06 02:15:10;;;;;;;5.40;2.87;;;13.50;99.90;;;;;;5004876;28;20435;-60
2021/07/06 02:17:36;;;;;;;7.57;3.40;;;13.50;99.90;;;;;;5012998;28;20515;-58
2021/07/06 02:20:08;;;;;;;4.83;3.93;;;13.50;99.90;;;;;;5011841;28;20996;-59
2021/07/06 02:22:35;;;;;;;14.23;4.00;;;13.50;99.90;;;;;;5001777;28;20189;-59
2021/07/06 02:25:00;;;;;;;9.10;3.30;;;13.50;99.90;;;;;;5009201;28;20920;-58
2021/07/06 02:27:26;;;;;;;5.33;3.90;;;13.40;99.90;;;;;;5007397;28;20435;-58
2021/07/06 02:29:52;;;;;;;10.13;3.37;;;13.40;99.90;;;;;;5009177;28;20181;-60
2021/07/06 02:32:17;;;;;;;32.00;4.20;;;13.40;99.90;;;;;;4999462;28;20760;-59
2021/07/06 02:34:43;;;;;;;10.70;3.67;;;13.40;99.90;;;;;;5009822;28;20173;-59
2021/07/06 02:37:09;;;;;;;6.13;3.37;;;13.40;99.90;;;;;;5012496;28;20238;-58
2021/07/06 02:39:34;;;;;;;3.57;3.13;;;13.40;99.90;;;;;;5012103;28;20668;-59
2021/07/06 02:42:00;;;;;;;4.93;3.60;;;13.40;99.90;;;;;;5007592;28;20204;-59
2021/07/06 02:44:25;;;;;;;7.50;3.30;;;13.40;99.90;;;;;;5010005;28;20176;-59
2021/07/06 02:46:51;;;;;;;5.93;3.33;;;13.40;99.90;;;;;;4986813;28;20207;-55
2021/07/06 02:49:17;;;;;;;4.50;3.67;;;13.40;99.90;;;;;;5011456;28;20184;-58
2021/07/06 02:51:42;;;;;;;17.67;3.43;;;13.30;99.90;;;;;;5004715;28;20274;-58
2021/07/06 02:54:08;;;;;;;15.63;3.27;;;13.30;99.90;;;;;;5010125;28;20183;-60
2021/07/06 02:56:34;;;;;;;17.13;3.07;;;13.30;99.90;;;;;;5010054;28;20188;-58
2021/07/06 02:58:59;;;;;;;35.00;3.53;;;13.30;99.90;;;;;;5010540;28;20201;-58
2021/07/06 03:01:25;;;;;;;17.67;3.50;;;13.20;99.90;;;;;;5008378;28;20513;-58
2021/07/06 03:03:51;;;;;;;18.40;3.00;;;13.20;99.90;;;;;;5011384;28;20172;-59
2021/07/06 03:06:16;;;;;;;23.83;2.70;;;13.10;99.90;;;;;;5010948;28;20185;-58
2021/07/06 03:08:42;;;;;;;25.10;3.20;;;13.10;99.90;;;;;;5006675;28;20173;-58
2021/07/06 03:11:07;;;;;;;9.07;2.43;;;13.00;99.90;;;;;;4995046;28;20173;-58
2021/07/06 03:13:33;;;;;;;7.90;3.03;;;13.00;99.90;;;;;;5000887;28;20224;-59
2021/07/06 03:16:00;;;;;;;10.73;2.60;;;13.00;99.90;;;;;;5013046;28;20238;-60
2021/07/06 03:18:26;;;;;;;9.90;2.97;;;13.00;99.90;;;;;;5014910;28;20176;-59
2021/07/06 03:20:52;;;;;;;9.63;3.30;;;13.00;99.90;;;;;;5007527;28;20432;-58
2021/07/06 03:23:18;;;;;;;9.00;2.80;;;13.00;99.90;;;;;;4999568;28;20201;-59
2021/07/06 03:25:44;;;;;;;4.20;3.10;;;13.00;99.90;;;;;;5002579;28;20180;-58
2021/07/06 03:28:11;;;;;;;9.53;3.00;;;13.00;99.90;;;;;;4999701;28;20450;-58
2021/07/06 03:30:38;;;;;;;5.10;3.27;;;13.00;99.90;;;;;;5009220;28;20431;-58
2021/07/06 03:33:06;;;;;;;5.80;2.90;;;13.00;99.90;;;;;;5007801;28;20463;-58
2021/07/06 03:35:32;;;;;;;4.90;2.73;;;13.00;99.90;;;;;;5005407;28;20431;-59
2021/07/06 03:37:58;;;;;;;3.67;2.80;;;13.00;99.90;;;;;;5010863;28;20758;-59
2021/07/06 03:40:25;;;;;;;11.53;3.23;;;13.00;99.90;;;;;;5010049;28;20704;-58
2021/07/06 03:42:51;;;;;;;9.73;3.33;;;13.00;99.90;;;;;;5007249;28;20226;-58
2021/07/06 03:45:17;;;;;;;4.83;2.83;;;12.90;99.90;;;;;;5007588;28;20613;-59
2021/07/06 03:47:43;;;;;;;12.10;3.13;;;12.90;99.90;;;;;;5012883;28;20455;-59
2021/07/06 03:50:12;;;;;;;5.90;3.10;;;12.90;99.90;;;;;;5014625;28;20440;-58
2021/07/06 03:52:38;;;;;;;2.70;2.50;;;12.90;99.90;;;;;;5015829;28;20509;-60
2021/07/06 03:55:05;;;;;;;3.63;2.60;;;12.90;99.90;;;;;;5017161;28;20427;-57
2021/07/06 03:57:32;;;;;;;7.83;2.60;;;12.90;99.90;;;;;;5012948;28;20239;-58
2021/07/06 04:00:06;;;;;;;2.30;2.20;;;12.90;99.90;;;;;;5006200;28;20475;-58
2021/07/06 04:02:32;;;;;;;2.47;2.27;;;12.80;99.90;;;;;;5001483;28;20483;-59
2021/07/06 04:04:58;;;;;;;2.20;2.00;;;12.80;99.90;;;;;;5004872;28;20459;-58
2021/07/06 04:07:23;;;;;;;2.50;2.30;;;12.80;99.90;;;;;;5010323;28;20259;-58
2021/07/06 04:09:49;;;;;;;2.30;2.20;;;12.80;99.90;;;;;;5005685;28;20771;-61
2021/07/06 04:12:15;;;;;;;2.90;2.60;;;12.80;99.90;;;;;;5002103;28;20211;-60
2021/07/06 04:14:41;;;;;;;2.77;2.40;;;12.90;99.90;;;;;;5000850;28;20168;-60
2021/07/06 04:17:06;;;;;;;7.57;2.80;;;12.90;99.90;;;;;;5005922;28;20641;-59
2021/07/06 04:19:32;;;;;;;7.27;2.83;;;12.90;99.90;;;;;;5008330;28;20283;-60
2021/07/06 04:21:58;;;;;;;6.93;2.40;;;12.90;99.90;;;;;;5006075;28;20223;-60
2021/07/06 04:24:24;;;;;;;18.80;3.77;;;12.90;99.90;;;;;;5004078;28;20176;-61
2021/07/06 04:26:49;;;;;;;18.03;3.80;;;12.90;99.90;;;;;;5005390;28;20435;-61
2021/07/06 04:29:15;;;;;;;6.50;3.67;;;12.90;99.90;;;;;;5000204;28;20192;-59
2021/07/06 04:31:41;;;;;;;11.80;3.20;;;12.90;99.90;;;;;;5001369;28;20222;-59
2021/07/06 04:34:06;;;;;;;7.00;2.40;;;12.90;99.90;;;;;;5004904;28;20621;-59
2021/07/06 04:36:32;;;;;;;15.37;3.27;;;12.90;99.90;;;;;;4998720;28;20573;-60
2021/07/06 04:39:02;;;;;;;15.73;3.30;;;12.90;99.90;;;;;;5001519;28;20200;-63
2021/07/06 04:41:28;;;;;;;13.97;2.93;;;12.90;99.90;;;;;;5000466;28;20180;-59
2021/07/06 04:43:53;;;;;;;11.37;3.60;;;12.90;99.90;;;;;;5000610;28;20974;-58
2021/07/06 04:46:19;;;;;;;11.70;2.60;;;12.90;99.90;;;;;;5003126;28;20191;-58
2021/07/06 04:48:45;;;;;;;25.20;3.37;;;13.00;99.90;;;;;;5000101;28;20181;-58
2021/07/06 04:51:10;;;;;;;8.93;3.30;;;13.00;99.90;;;;;;5002231;28;20189;-57
2021/07/06 04:53:38;;;;;;;12.53;3.30;;;13.10;99.90;;;;;;5001963;28;20280;-60
2021/07/06 04:56:05;;;;;;;10.40;2.80;;;13.10;99.90;;;;;;5000495;28;20176;-60
2021/07/06 04:58:30;;;;;;;5.50;3.00;;;13.10;99.90;;;;;;5001244;28;20510;-59
2021/07/06 05:00:57;;;;;;;14.07;3.10;;;13.20;99.90;;;;;;5005680;28;20522;-60
2021/07/06 05:03:23;;;;;;;9.83;3.10;;;13.30;99.90;;;;;;5000808;28;20742;-59
2021/07/06 05:05:49;;;;;;;3.00;2.73;;;13.30;99.90;;;;;;5005525;28;20436;-60
2021/07/06 05:08:15;;;;;;;3.50;3.20;;;13.40;99.90;;;;;;5000417;28;20431;-60
2021/07/06 05:10:41;;;;;;;4.27;2.70;;;13.50;99.90;;;;;;5008183;28;20524;-60
2021/07/06 05:13:07;;;;;;;6.33;3.17;;;13.60;99.90;;;;;;5004033;28;20188;-60
2021/07/06 05:15:32;;;;;;;3.10;2.77;;;13.60;99.90;;;;;;5016878;28;20201;-61
2021/07/06 05:17:58;;;;;;;3.10;2.80;;;13.70;99.90;;;;;;4997011;28;20173;-62
2021/07/06 05:20:24;;;;;;;3.23;3.00;;;13.70;99.90;;;;;;4998385;28;20326;-61
2021/07/06 05:22:49;;;;;;;5.27;2.80;;;13.80;99.90;;;;;;4994069;28;20201;-61
2021/07/06 05:25:15;;;;;;;2.97;2.77;;;13.90;99.90;;;;;;4998016;28;20187;-61
2021/07/06 05:27:42;;;;;;;3.20;2.50;;;14.00;99.90;;;;;;5006654;28;20173;-62
2021/07/06 05:30:09;;;;;;;4.00;2.70;;;14.10;99.90;;;;;;5006217;28;20172;-60
2021/07/06 05:32:37;;;;;;;3.00;2.70;;;14.20;99.90;;;;;;5003280;28;20550;-61
2021/07/06 05:35:04;;;;;;;3.50;3.20;;;14.20;99.90;;;;;;5005883;28;20510;-61
2021/07/06 05:37:30;;;;;;;2.87;2.57;;;14.20;99.90;;;;;;5002670;28;20427;-61
2021/07/06 05:39:55;;;;;;;3.00;2.50;;;14.30;99.90;;;;;;5001401;28;20455;-60
2021/07/06 05:42:21;;;;;;;2.77;2.57;;;14.30;99.90;;;;;;4999691;28;20210;-61
2021/07/06 05:44:47;;;;;;;2.87;2.50;;;14.40;99.90;;;;;;4997777;28;20173;-61
2021/07/06 05:47:14;;;;;;;3.53;2.43;;;14.40;99.90;;;;;;5006785;28;20180;-61
2021/07/06 05:49:40;;;;;;;5.00;2.43;;;14.50;99.90;;;;;;5004078;28;20978;-60
2021/07/06 05:52:06;;;;;;;2.40;2.20;;;14.50;99.90;;;;;;5007611;28;20455;-62
2021/07/06 05:54:32;;;;;;;3.17;2.70;;;14.60;99.90;;;;;;5009911;28;20192;-60
2021/07/06 05:56:57;;;;;;;3.23;2.50;;;14.60;99.90;;;;;;5005968;28;20427;-61
2021/07/06 05:59:23;;;;;;;9.30;2.50;;;14.70;99.90;;;;;;5005695;28;20195;-60
2021/07/06 06:01:49;;;;;;;3.57;2.63;;;14.80;99.90;;;;;;5002375;28;20210;-61
2021/07/06 06:04:16;;;;;;;2.30;2.20;;;14.80;99.90;;;;;;5003188;28;20173;-61
2021/07/06 06:06:42;;;;;;;6.73;2.40;;;14.80;99.90;;;;;;5003806;28;20196;-61
2021/07/06 06:09:07;;;;;;;2.33;2.13;;;15.00;99.90;;;;;;5000714;28;20732;-60
2021/07/06 06:11:33;;;;;;;2.73;2.53;;;15.10;99.90;;;;;;5005379;28;20463;-60
2021/07/06 06:13:59;;;;;;;3.90;2.30;;;15.20;99.90;;;;;;5005774;28;20246;-60
2021/07/06 06:16:24;;;;;;;3.90;2.40;;;15.30;99.90;;;;;;5005125;28;20690;-61
2021/07/06 06:18:55;;;;;;;5.60;4.97;;;15.40;99.90;;;;;;5002257;28;20204;-60
2021/07/06 06:21:25;;;;;;;4.40;3.60;;;15.50;99.90;;;;;;5000141;28;20177;-60
2021/07/06 06:23:51;;;;;;;3.30;3.10;;;15.60;99.90;;;;;;5003647;28;20967;-61
2021/07/06 06:26:17;;;;;;;3.97;2.73;;;15.80;99.90;;;;;;4995865;28;20435;-61
2021/07/06 06:28:43;;;;;;;3.30;2.57;;;15.90;99.90;;;;;;5001163;28;20493;-60
2021/07/06 06:31:08;;;;;;;3.50;2.83;;;16.10;99.90;;;;;;5004227;28;20185;-61
2021/07/06 06:33:34;;;;;;;5.50;3.70;;;16.30;99.90;;;;;;5000344;28;20189;-61
2021/07/06 06:36:00;;;;;;;11.17;4.27;;;16.40;99.90;;;;;;5006145;28;20176;-60
2021/07/06 06:38:25;;;;;;;7.20;3.37;;;16.70;99.90;;;;;;5004150;28;20188;-61
2021/07/06 06:40:51;;;;;;;4.33;3.00;;;16.90;99.90;;;;;;5005862;28;20667;-63
2021/07/06 06:43:17;;;;;;;7.87;3.10;;;17.20;99.90;;;;;;5001899;28;20201;-61
2021/07/06 06:45:43;;;;;;;6.60;3.20;;;17.30;99.90;;;;;;5010053;28;20192;-61
2021/07/06 06:48:09;;;;;;;3.03;2.80;;;17.50;99.90;;;;;;5002852;28;20396;-62
2021/07/06 06:50:35;;;;;;;4.03;2.63;;;17.70;99.90;;;;;;5004764;28;20453;-62
2021/07/06 06:53:00;;;;;;;8.13;2.50;;;17.80;99.90;;;;;;5007788;28;20541;-61
2021/07/06 06:55:26;;;;;;;5.13;2.60;;;18.00;99.90;;;;;;5007438;28;20188;-61
2021/07/06 06:57:52;;;;;;;3.13;2.30;;;18.10;99.90;;;;;;5011413;28;20189;-62
2021/07/06 07:00:17;;;;;;;13.03;2.50;;;18.30;99.90;;;;;;5006503;28;20701;-61
2021/07/06 07:02:44;;;;;;;8.70;2.63;;;18.40;99.90;;;;;;5010113;28;20185;-61
2021/07/06 07:05:14;;;;;;;2.67;2.27;;;18.50;99.90;;;;;;5010170;28;20181;-62
2021/07/06 07:07:39;;;;;;;2.30;1.67;;;18.70;99.90;;;;;;5005270;28;20478;-61
2021/07/06 07:10:08;;;;;;;1.57;1.47;;;18.90;99.90;;;;;;5005768;28;20427;-62
2021/07/06 07:12:35;;;;;;;2.70;1.77;;;19.10;99.90;;;;;;5010673;28;20199;-62
2021/07/06 07:15:03;;;;;;;4.53;1.70;;;19.10;99.90;;;;;;5004328;28;20589;-61
2021/07/06 07:17:28;;;;;;;1.87;1.77;;;19.20;99.90;;;;;;5007293;28;20435;-61
2021/07/06 07:19:54;;;;;;;3.20;1.67;;;19.20;99.60;;;;;;5001556;28;20472;-61
2021/07/06 07:22:20;;;;;;;2.77;1.60;;;19.10;99.90;;;;;;5004546;28;20196;-61
2021/07/06 07:24:46;;;;;;;1.77;1.67;;;19.10;99.90;;;;;;5006036;28;20222;-62
2021/07/06 07:27:12;;;;;;;2.93;2.27;;;19.10;99.90;;;;;;5003560;28;20209;-61
2021/07/06 07:29:38;;;;;;;5.23;2.10;;;19.00;99.90;;;;;;5009741;28;20411;-62
2021/07/06 07:32:05;;;;;;;2.20;2.00;;;19.00;99.90;;;;;;5005915;28;20636;-61
2021/07/06 07:34:33;;;;;;;2.40;2.20;;;19.00;99.90;;;;;;5007844;28;20430;-61
2021/07/06 07:36:59;;;;;;;5.33;2.40;;;19.00;99.90;;;;;;5008418;28;21026;-61
2021/07/06 07:39:25;;;;;;;3.90;2.90;;;19.10;99.90;;;;;;5003754;28;20459;-61
2021/07/06 07:41:51;;;;;;;2.87;2.67;;;19.20;99.90;;;;;;5004081;28;20196;-62
2021/07/06 07:44:19;;;;;;;4.20;2.10;;;19.40;99.90;;;;;;5006065;28;20427;-61
2021/07/06 07:46:45;;;;;;;2.33;2.13;;;19.50;99.90;;;;;;5010059;28;20247;-61
2021/07/06 07:49:10;;;;;;;16.07;2.57;;;19.60;99.90;;;;;;5004018;28;20973;-61
2021/07/06 07:51:36;;;;;;;3.90;2.10;;;19.70;99.90;;;;;;5005829;28;20201;-61
2021/07/06 07:54:02;;;;;;;6.23;2.20;;;19.90;99.90;;;;;;5006085;28;20180;-62
2021/07/06 07:56:28;;;;;;;3.30;2.40;;;20.10;99.90;;;;;;4999762;28;20646;-60
2021/07/06 07:58:54;;;;;;;8.37;1.90;;;20.20;99.90;;;;;;5005466;28;20424;-60
2021/07/06 08:01:20;;;;;;;4.77;2.30;;;20.40;99.90;;;;;;5005336;28;20644;-61
2021/07/06 08:03:46;;;;;;;3.77;2.50;;;20.50;99.60;;;;;;5005649;28;20183;-61
2021/07/06 08:06:11;;;;;;;2.40;2.10;;;20.70;99.80;;;;;;5005580;28;20863;-61
2021/07/06 08:08:37;;;;;;;8.60;2.33;;;20.80;98.70;;;;;;4999574;28;20169;-61
2021/07/06 08:11:02;;;;;;;3.83;2.10;;;20.90;99.40;;;;;;4991138;28;20566;-58
2021/07/06 08:13:32;;;;;;;3.67;1.90;;;21.10;99.30;;;;;;4997537;28;20287;-61
2021/07/06 08:15:58;;;;;;;1.70;1.60;;;21.30;98.50;;;;;;4998346;28;20215;-61
2021/07/06 08:18:23;;;;;;;3.50;1.50;;;21.40;98.20;;;;;;5002369;28;20537;-57
2021/07/06 08:20:49;;;;;;;1.63;1.53;;;21.60;96.00;;;;;;4996174;28;20197;-57
2021/07/06 08:23:16;;;;;;;1.53;1.43;;;21.70;95.60;;;;;;5002196;28;20342;-62
2021/07/06 08:25:44;;;;;;;1.97;1.60;;;21.70;94.20;;;;;;5000078;28;20428;-63
2021/07/06 08:28:10;;;;;;;1.73;1.60;;;21.80;93.50;;;;;;5001624;28;21020;-62
2021/07/06 08:30:38;;;;;;;1.70;1.60;;;21.90;93.50;;;;;;5000934;28;21011;-62
2021/07/06 08:33:04;;;;;;;2.00;1.77;;;22.00;93.80;;;;;;5005201;28;21155;-62
2021/07/06 08:35:30;;;;;;;2.43;1.53;;;22.20;94.50;;;;;;4998217;28;20518;-63
2021/07/06 08:37:55;;;;;;;5.47;1.50;;;22.50;95.60;;;;;;5005425;28;20716;-61
2021/07/06 08:40:21;;;;;;;1.50;1.40;;;22.80;94.60;;;;;;4999240;28;20521;-61
2021/07/06 08:42:50;;;;;;;6.87;1.60;;;22.90;94.70;;;;;;5004907;28;20200;-62
2021/07/06 08:45:16;;;;;;;3.30;1.80;;;23.00;93.90;;;;;;5000210;28;20525;-61
2021/07/06 08:47:45;;;;;;;3.67;1.83;;;23.30;93.40;;;;;;5007131;28;20434;-60
2021/07/06 08:50:11;;;;;;;3.40;2.20;;;23.50;93.70;;;;;;5003861;28;20215;-62
2021/07/06 08:52:41;;;;;;;1.50;1.40;;;23.70;94.30;;;;;;5001594;28;20529;-61
2021/07/06 08:55:07;;;;;;;2.00;1.53;;;23.70;91.00;;;;;;5001346;28;20427;-61
2021/07/06 08:57:37;;;;;;;5.30;1.67;;;23.70;88.50;;;;;;5000896;28;20805;-61
2021/07/06 09:00:04;;;;;;;1.83;1.73;;;23.70;77.60;;;;;;5003821;28;20956;-59
2021/07/06 09:02:29;;;;;;;3.97;1.67;;;23.80;80.40;;;;;;5005954;28;20863;-59
2021/07/06 09:04:55;;;;;;;1.77;1.67;;;23.80;72.20;;;;;;5002460;28;20995;-61
2021/07/06 09:07:21;;;;;;;2.20;1.90;;;23.90;65.70;;;;;;5009119;28;20173;-61
2021/07/06 09:09:49;;;;;;;2.07;1.77;;;24.00;67.90;;;;;;5003152;28;20584;-61
2021/07/06 09:12:16;;;;;;;1.60;1.50;;;24.10;67.70;;;;;;5000037;28;20455;-61
2021/07/06 09:14:47;;;;;;;2.07;1.87;;;24.10;66.10;;;;;;5002794;28;20965;-60
2021/07/06 09:17:15;;;;;;;3.10;2.80;;;24.20;66.80;;;;;;5004127;28;20432;-61
2021/07/06 09:19:44;;;;;;;2.20;1.80;;;24.20;66.00;;;;;;4999969;28;20447;-62
2021/07/06 09:22:12;;;;;;;2.17;1.93;;;24.30;68.70;;;;;;5001997;28;20519;-63
2021/07/06 09:24:39;;;;;;;1.80;1.70;;;24.40;67.60;;;;;;5007484;28;20438;-62
2021/07/06 09:27:27;;;;;;;3.53;2.20;;;24.50;69.00;;;;;;5006646;28;20423;-62
2021/07/06 09:30:02;;;;;;;2.00;1.87;;;24.40;68.20;;;;;;5004151;28;20431;-60
2021/07/06 09:32:27;;;;;;;2.23;2.03;;;24.40;70.10;;;;;;5002772;28;21153;-60
2021/07/06 09:34:53;;;;;;;1.97;1.83;;;24.30;74.90;;;;;;5005940;28;20508;-61
2021/07/06 09:37:18;;;;;;;6.73;2.10;;;24.20;77.30;;;;;;5003373;28;20180;-61
2021/07/06 09:39:44;;;;;;;2.30;2.10;;;24.10;76.00;;;;;;5000114;28;20611;-63
2021/07/06 09:42:14;;;;;;;2.30;1.73;;;23.90;78.70;;;;;;5001965;28;20208;-61
2021/07/06 09:44:40;;;;;;;2.07;1.87;;;23.80;80.20;;;;;;4999278;28;20242;-60
2021/07/06 09:47:09;;;;;;;6.10;2.47;;;23.70;82.20;;;;;;5003238;28;20893;-61
2021/07/06 09:49:57;;;;;;;4.97;2.20;;;23.60;85.00;;;;;;4997105;28;20424;-61
2021/07/06 09:52:23;;;;;;;3.50;2.60;;;23.60;85.60;;;;;;4998117;28;20482;-60
2021/07/06 09:54:51;;;;;;;3.20;2.07;;;23.50;85.00;;;;;;5004832;28;20439;-61
2021/07/06 09:57:22;;;;;;;4.37;2.27;;;23.40;83.90;;;;;;4999718;28;21446;-61
2021/07/06 10:00:01;;;;;;;3.40;2.30;;;23.40;87.00;;;;;;5009683;28;20459;-61
2021/07/06 10:02:29;;;;;;;2.73;2.10;;;23.40;86.40;;;;;;5004616;28;21027;-61
2021/07/06 10:04:57;;;;;;;3.80;2.40;;;23.50;88.20;;;;;;5001814;28;21252;-61
2021/07/06 10:07:23;;;;;;;3.67;2.53;;;23.50;83.30;;;;;;5002019;28;20427;-60
2021/07/06 10:09:50;;;;;;;2.30;2.10;;;23.60;86.90;;;;;;4992479;28;20427;-64
2021/07/06 10:12:17;;;;;;;2.70;2.20;;;23.60;84.80;;;;;;4997180;28;20443;-60
2021/07/06 10:14:44;;;;;;;2.47;2.30;;;23.60;85.00;;;;;;4999136;28;20440;-60
2021/07/06 10:17:10;;;;;;;2.43;2.23;;;23.70;82.20;;;;;;4998660;28;20448;-62
2021/07/06 10:19:42;;;;;;;2.30;2.17;;;23.70;82.30;;;;;;4998255;28;20458;-60
2021/07/06 10:22:10;;;;;;;2.60;2.40;;;23.80;85.70;;;;;;5004370;28;20893;-61
2021/07/06 10:24:41;;;;;;;3.40;2.13;;;24.00;86.60;;;;;;5005919;28;22259;-61
2021/07/06 10:27:12;;;;;;;4.00;2.60;;;24.10;88.30;;;;;;5014489;28;20419;-61
2021/07/06 10:29:40;;;;;;;2.60;2.40;;;24.10;85.30;;;;;;5008468;28;20443;-60
2021/07/06 10:32:06;;;;;;;4.20;2.30;;;24.00;81.00;;;;;;5001923;28;20471;-60
2021/07/06 10:34:42;;;;;;;2.70;2.37;;;23.90;82.30;;;;;;5011057;28;20557;-60
2021/07/06 10:37:29;;;;;;;2.70;2.50;;;23.80;81.70;;;;;;5007913;28;20461;-60
2021/07/06 10:39:55;;;;;;;2.63;2.43;;;23.70;81.20;;;;;;5008629;28;20975;-60
2021/07/06 10:42:38;;;;;;;3.17;2.30;;;23.60;82.00;;;;;;5005596;28;20462;-61
2021/07/06 10:45:14;;;;;;;3.80;3.30;;;23.50;82.40;;;;;;5010611;28;20444;-61
2021/07/06 10:47:39;;;;;;;2.67;2.47;;;23.40;84.70;;;;;;5005063;28;20445;-61
2021/07/06 10:50:26;;;;;;;3.00;2.47;;;23.40;89.00;;;;;;5007987;28;20939;-61
2021/07/06 10:53:16;;;;;;;3.83;2.73;;;23.30;84.90;;;;;;5008864;28;20196;-60
2021/07/06 10:55:43;;;;;;;4.93;2.80;;;23.10;87.00;;;;;;5008704;28;20419;-62
2021/07/06 10:58:09;;;;;;;2.80;2.60;;;23.00;88.00;;;;;;4996897;28;20459;-60
2021/07/06 11:00:43;;;;;;;2.80;2.60;;;22.80;90.10;;;;;;5004905;28;20538;-61
2021/07/06 11:03:19;;;;;;;9.87;4.80;;;22.70;91.50;;;;;;5002376;28;20566;-62
2021/07/06 11:05:45;;;;;;;4.87;3.07;;;22.60;91.80;;;;;;5006004;28;20425;-61
2021/07/06 11:08:40;;;;;;;5.10;3.30;;;22.40;92.20;;;;;;5002373;28;20439;-61
2021/07/06 11:11:06;;;;;;;3.50;2.60;;;22.30;92.50;;;;;;5001320;28;20429;-60
2021/07/06 11:13:32;;;;;;;2.90;2.60;;;22.30;93.30;;;;;;5005021;28;20451;-60
2021/07/06 11:16:01;;;;;;;13.20;2.80;;;22.20;93.30;;;;;;5004091;28;20180;-59
2021/07/06 11:18:35;;;;;;;3.90;2.43;;;22.20;93.80;;;;;;5002912;28;20172;-59
2021/07/06 11:21:01;;;;;;;8.70;3.07;;;22.20;93.30;;;;;;5006987;28;20466;-60
2021/07/06 11:23:31;;;;;;;2.93;2.60;;;22.20;93.90;;;;;;4998520;28;20749;-60
2021/07/06 11:26:05;;;;;;;3.13;2.60;;;22.20;93.90;;;;;;4987552;28;20569;-57
2021/07/06 11:28:31;;;;;;;2.93;2.63;;;22.20;94.20;;;;;;4997384;28;20462;-56
2021/07/06 11:31:02;;;;;;;3.20;2.60;;;22.20;95.10;;;;;;4999604;28;21006;-62
2021/07/06 11:33:31;;;;;;;3.80;2.60;;;22.10;95.30;;;;;;4995937;28;20579;-58
2021/07/06 11:35:58;;;;;;;3.20;2.90;;;22.10;95.00;;;;;;4998863;28;20514;-60
2021/07/06 11:38:40;;;;;;;3.23;2.93;;;22.00;95.90;;;;;;4999429;28;20450;-59
2021/07/06 11:41:07;;;;;;;3.87;3.10;;;21.90;96.50;;;;;;4999422;28;20463;-60
2021/07/06 11:43:34;;;;;;;3.40;2.60;;;21.90;96.30;;;;;;5000619;28;20462;-59
2021/07/06 11:46:02;;;;;;;4.07;2.80;;;21.80;96.30;;;;;;4995495;28;20970;-60
2021/07/06 11:48:37;;;;;;;3.03;2.80;;;21.70;96.00;;;;;;4997207;28;20970;-60
2021/07/06 11:51:07;;;;;;;3.30;3.00;;;21.70;96.10;;;;;;5001990;28;20521;-60
2021/07/06 11:53:36;;;;;;;2.83;2.63;;;21.70;96.30;;;;;;4997317;28;20983;-60
2021/07/06 11:56:04;;;;;;;3.00;2.60;;;21.80;96.40;;;;;;5000307;28;20438;-60
2021/07/06 11:58:32;;;;;;;3.00;2.70;;;21.90;96.30;;;;;;5000414;28;20538;-60
2021/07/06 12:00:59;;;;;;;3.30;3.00;;;21.90;95.40;;;;;;5001279;28;21195;-61
2021/07/06 12:03:29;;;;;;;2.70;2.30;;;21.90;95.30;;;;;;4998308;28;20551;-60
2021/07/06 12:06:15;;;;;;;2.53;2.40;;;21.90;95.50;;;;;;4996784;28;20974;-61
2021/07/06 12:08:45;;;;;;;5.07;2.80;;;21.90;95.70;;;;;;4995699;28;20431;-59
2021/07/06 12:11:13;;;;;;;2.90;2.57;;;21.90;95.30;;;;;;4999628;28;20497;-59
2021/07/06 12:13:42;;;;;;;3.07;2.87;;;21.90;95.50;;;;;;4999688;28;21125;-60
2021/07/06 12:16:11;;;;;;;3.50;2.50;;;21.90;95.30;;;;;;5000785;28;20431;-59
2021/07/06 12:18:51;;;;;;;4.03;2.60;;;22.00;96.00;;;;;;4999452;28;21287;-60
2021/07/06 12:21:29;;;;;;;3.00;2.77;;;22.10;96.20;;;;;;5001550;28;20476;-59
2021/07/06 12:24:06;;;;;;;4.40;3.50;;;22.30;96.20;;;;;;5004293;28;20557;-60
2021/07/06 12:26:32;;;;;;;3.30;3.00;;;22.60;95.90;;;;;;4992673;28;22268;-60
2021/07/06 12:28:58;;;;;;;3.07;2.87;;;22.70;95.50;;;;;;4999548;28;20434;-60
2021/07/06 12:31:31;;;;;;;2.70;2.50;;;22.70;94.70;;;;;;4997764;28;20184;-60
2021/07/06 12:34:10;;;;;;;3.33;2.53;;;22.70;94.50;;;;;;5001508;28;20432;-61
2021/07/06 12:36:42;;;;;;;8.10;3.10;;;22.70;93.50;;;;;;4997709;28;20514;-61
2021/07/06 12:39:24;;;;;;;3.27;2.70;;;22.90;93.70;;;;;;5002137;28;20470;-60
2021/07/06 12:41:52;;;;;;;3.57;2.17;;;23.00;91.70;;;;;;4995032;28;20459;-60
2021/07/06 12:44:33;;;;;;;2.83;2.60;;;22.90;91.50;;;;;;5001531;28;20435;-61
2021/07/06 12:47:24;;;;;;;3.77;2.87;;;22.80;92.10;;;;;;4996561;28;20518;-60